WXM80 ListenWXM80 Stop

You find our weather info also at:

UK Metoffice

WeatherCloud

Weather Underground

Northeastern Weather Network

AWEKAS

Citizen Weather Observer Program (CWOP)

HAMweather, WeatherForYou, PWS Weather


Weather Underground History page Text

Daily Summary for November 19, 2017 Units:  Both    English   Metric
« Previous Day
Next Day »
Daily Weekly Monthly Yearly Custom
  High: Low: Average:
Temperature: 58.7 °F /  14.8 °C 42.4 °F /  5.8 °C 51.2 °F /  10.7 °C
Dew Point: 56.7 °F /  13.7 °C 30.3 °F /  -0.9 °C 43.4 °F /  6.3 °C
Humidity: 96 % 58 % 76 %
Wind Speed: 17.8 mph /  28.6 km/h - 7.1 mph /  11.4 km/h
Wind Gust: 28.0 mph /  45.1 km/h - -
Wind:- - WSW
Pressure: 29.78 in /  1008.4 hPa 29.23 in /  989.7 hPa -
Precipitation: 0.08 in /  2.03 mm    
Historical Graphs
 
 
Tabular Data for November 19, 2017
Time Temperature Dew Point Pressure Wind Wind Speed Wind Gust Humidity Rainfall Rate (Hourly)
00:00 56.8 °F /  13.8 °C 55.1 °F /  12.8 °C 29.45 in /  997.2 hPa SW 2.8 mph /  4.5 km/h 5.8 mph /  9.3 km/h 94 % 0.00 in /  0 mm
00:05 56.9 °F /  13.8 °C 54.9 °F /  12.7 °C 29.44 in /  996.8 hPa South 5.2 mph /  8.4 km/h 8.1 mph /  13 km/h 93 % 0.00 in /  0 mm
00:10 57.0 °F /  13.9 °C 55.0 °F /  12.8 °C 29.44 in /  996.8 hPa South 4.0 mph /  6.4 km/h 10.0 mph /  16.1 km/h 93 % 0.00 in /  0 mm
00:15 57.1 °F /  13.9 °C 55.1 °F /  12.8 °C 29.43 in /  996.5 hPa South 4.0 mph /  6.4 km/h 8.0 mph /  12.9 km/h 93 % 0.00 in /  0 mm
00:20 57.1 °F /  13.9 °C 54.8 °F /  12.7 °C 29.43 in /  996.5 hPa SSW 6.2 mph /  10 km/h 7.0 mph /  11.3 km/h 92 % 0.00 in /  0 mm
00:25 57.2 °F /  14 °C 54.9 °F /  12.7 °C 29.43 in /  996.5 hPa South 7.9 mph /  12.7 km/h 12.7 mph /  20.4 km/h 92 % 0.00 in /  0 mm
00:30 57.2 °F /  14 °C 54.6 °F /  12.6 °C 29.42 in /  996.2 hPa SSW 4.8 mph /  7.7 km/h 12.7 mph /  20.4 km/h 91 % 0.00 in /  0 mm
00:35 57.3 °F /  14.1 °C 54.7 °F /  12.6 °C 29.41 in /  995.8 hPa SW 3.3 mph /  5.3 km/h 9.2 mph /  14.8 km/h 91 % 0.00 in /  0 mm
00:40 57.3 °F /  14.1 °C 54.7 °F /  12.6 °C 29.41 in /  995.8 hPa SSW 6.3 mph /  10.1 km/h 9.2 mph /  14.8 km/h 91 % 0.00 in /  0 mm
00:45 57.3 °F /  14.1 °C 54.7 °F /  12.6 °C 29.40 in /  995.5 hPa South 5.5 mph /  8.9 km/h 11.5 mph /  18.5 km/h 91 % 0.00 in /  0 mm
00:50 57.4 °F /  14.1 °C 54.5 °F /  12.5 °C 29.40 in /  995.5 hPa South 5.6 mph /  9 km/h 6.0 mph /  9.7 km/h 90 % 0.00 in /  0 mm
00:55 57.4 °F /  14.1 °C 54.5 °F /  12.5 °C 29.40 in /  995.5 hPa SSW 4.6 mph /  7.4 km/h 6.9 mph /  11.1 km/h 90 % 0.00 in /  0 mm
01:00 57.4 °F /  14.1 °C 54.5 °F /  12.5 °C 29.40 in /  995.5 hPa South 5.5 mph /  8.9 km/h 11.5 mph /  18.5 km/h 90 % 0.00 in /  0 mm
01:05 57.4 °F /  14.1 °C 54.2 °F /  12.3 °C 29.40 in /  995.5 hPa South 7.0 mph /  11.3 km/h 13.8 mph /  22.2 km/h 89 % 0.00 in /  0 mm
01:15 57.4 °F /  14.1 °C 54.2 °F /  12.3 °C 29.39 in /  995.1 hPa South 4.1 mph /  6.6 km/h 13.8 mph /  22.2 km/h 89 % 0.00 in /  0 mm
01:20 57.5 °F /  14.2 °C 54.3 °F /  12.4 °C 29.38 in /  994.8 hPa South 5.0 mph /  8 km/h 10.0 mph /  16.1 km/h 89 % 0.00 in /  0 mm
01:25 57.5 °F /  14.2 °C 54.3 °F /  12.4 °C 29.38 in /  994.8 hPa South 5.0 mph /  8 km/h 13.0 mph /  20.9 km/h 89 % 0.00 in /  0 mm
01:30 57.5 °F /  14.2 °C 54.3 °F /  12.4 °C 29.39 in /  995.1 hPa South 3.0 mph /  4.8 km/h 12.0 mph /  19.3 km/h 89 % 0.00 in /  0 mm
01:35 57.5 °F /  14.2 °C 54.3 °F /  12.4 °C 29.38 in /  994.8 hPa SSW 5.0 mph /  8 km/h 12.0 mph /  19.3 km/h 89 % 0.00 in /  0 mm
01:41 57.6 °F /  14.2 °C 54.4 °F /  12.4 °C 29.38 in /  994.8 hPa SSW 7.0 mph /  11.3 km/h 10.0 mph /  16.1 km/h 89 % 0.00 in /  0 mm
01:46 57.7 °F /  14.3 °C 54.5 °F /  12.5 °C 29.37 in /  994.5 hPa South 3.0 mph /  4.8 km/h 20.0 mph /  32.2 km/h 89 % 0.00 in /  0 mm
01:50 57.8 °F /  14.3 °C 54.6 °F /  12.6 °C 29.37 in /  994.5 hPa South 7.0 mph /  11.3 km/h 12.0 mph /  19.3 km/h 89 % 0.00 in /  0 mm
02:00 58.0 °F /  14.4 °C 54.8 °F /  12.7 °C 29.36 in /  994.1 hPa South 5.6 mph /  9 km/h 8.1 mph /  13 km/h 89 % 0.00 in /  0 mm
02:05 58.1 °F /  14.5 °C 54.9 °F /  12.7 °C 29.36 in /  994.1 hPa SSW 5.7 mph /  9.2 km/h 8.1 mph /  13 km/h 89 % 0.00 in /  0 mm
02:20 58.4 °F /  14.7 °C 55.2 °F /  12.9 °C 29.35 in /  993.8 hPa SSW 6.0 mph /  9.7 km/h 17.0 mph /  27.4 km/h 89 % 0.00 in /  0 mm
02:25 58.4 °F /  14.7 °C 55.2 °F /  12.9 °C 29.35 in /  993.8 hPa SSW 5.0 mph /  8 km/h 12.0 mph /  19.3 km/h 89 % 0.00 in /  0 mm
02:30 58.5 °F /  14.7 °C 55.3 °F /  12.9 °C 29.35 in /  993.8 hPa SSW 5.0 mph /  8 km/h 12.0 mph /  19.3 km/h 89 % 0.00 in /  0 mm
02:40 58.7 °F /  14.8 °C 55.5 °F /  13.1 °C 29.35 in /  993.8 hPa SSW 5.3 mph /  8.5 km/h 8.0 mph /  12.9 km/h 89 % 0.00 in /  0 mm
02:45 58.7 °F /  14.8 °C 55.8 °F /  13.2 °C 29.34 in /  993.5 hPa SSW 5.0 mph /  8 km/h 16.0 mph /  25.7 km/h 90 % 0.00 in /  0 mm
02:50 58.7 °F /  14.8 °C 55.8 °F /  13.2 °C 29.34 in /  993.5 hPa SSW 7.0 mph /  11.3 km/h 13.0 mph /  20.9 km/h 90 % 0.00 in /  0 mm
03:01 58.5 °F /  14.7 °C 55.9 °F /  13.3 °C 29.33 in /  993.1 hPa SSE 6.0 mph /  9.7 km/h 14.0 mph /  22.5 km/h 91 % 0.00 in /  0 mm
03:06 58.4 °F /  14.7 °C 56.1 °F /  13.4 °C 29.33 in /  993.1 hPa SSW 6.1 mph /  9.8 km/h 7.0 mph /  11.3 km/h 92 % 0.00 in /  0 mm
03:10 58.3 °F /  14.6 °C 56.0 °F /  13.3 °C 29.32 in /  992.8 hPa SSW 7.5 mph /  12.1 km/h 11.5 mph /  18.5 km/h 92 % 0.00 in /  0 mm
03:16 58.2 °F /  14.6 °C 55.9 °F /  13.3 °C 29.32 in /  992.8 hPa SSW 6.0 mph /  9.7 km/h 12.0 mph /  19.3 km/h 92 % 0.00 in /  0 mm
03:21 58.2 °F /  14.6 °C 55.9 °F /  13.3 °C 29.32 in /  992.8 hPa SSW 5.0 mph /  8 km/h 20.0 mph /  32.2 km/h 92 % 0.00 in /  0 mm
03:26 58.2 °F /  14.6 °C 55.9 °F /  13.3 °C 29.32 in /  992.8 hPa SSW 3.0 mph /  4.8 km/h 13.0 mph /  20.9 km/h 92 % 0.00 in /  0 mm
03:31 58.2 °F /  14.6 °C 56.2 °F /  13.4 °C 29.31 in /  992.4 hPa SSW 8.0 mph /  12.9 km/h 14.0 mph /  22.5 km/h 93 % 0.00 in /  0 mm
03:36 58.1 °F /  14.5 °C 56.1 °F /  13.4 °C 29.31 in /  992.4 hPa SSW 7.0 mph /  11.3 km/h 12.0 mph /  19.3 km/h 93 % 0.00 in /  0 mm
03:41 58.1 °F /  14.5 °C 56.1 °F /  13.4 °C 29.30 in /  992.1 hPa SSW 6.0 mph /  9.7 km/h 12.0 mph /  19.3 km/h 93 % 0.00 in /  0 mm
03:56 57.8 °F /  14.3 °C 55.8 °F /  13.2 °C 29.30 in /  992.1 hPa SSW 7.0 mph /  11.3 km/h 13.0 mph /  20.9 km/h 93 % 0.00 in /  0 mm
04:01 57.7 °F /  14.3 °C 55.7 °F /  13.2 °C 29.30 in /  992.1 hPa South 2.8 mph /  4.5 km/h 5.8 mph /  9.3 km/h 93 % 0.00 in /  0 mm
04:06 57.6 °F /  14.2 °C 55.9 °F /  13.3 °C 29.30 in /  992.1 hPa SSW 6.1 mph /  9.8 km/h 10.4 mph /  16.7 km/h 94 % 0.00 in /  0 mm
04:16 57.6 °F /  14.2 °C 55.9 °F /  13.3 °C 29.30 in /  992.1 hPa SSW 8.4 mph /  13.5 km/h 15.0 mph /  24.1 km/h 94 % 0.00 in /  0 mm
04:26 57.7 °F /  14.3 °C 56.0 °F /  13.3 °C 29.29 in /  991.8 hPa SSW 5.5 mph /  8.9 km/h 9.2 mph /  14.8 km/h 94 % 0.00 in /  0 mm
04:31 57.7 °F /  14.3 °C 56.3 °F /  13.5 °C 29.28 in /  991.4 hPa South 4.1 mph /  6.6 km/h 6.9 mph /  11.1 km/h 95 % 0.00 in /  0 mm
04:36 57.6 °F /  14.2 °C 56.2 °F /  13.4 °C 29.28 in /  991.4 hPa SSW 3.0 mph /  4.8 km/h 6.9 mph /  11.1 km/h 95 % 0.00 in /  0 mm
04:41 57.6 °F /  14.2 °C 56.2 °F /  13.4 °C 29.28 in /  991.4 hPa SSE 3.9 mph /  6.3 km/h 6.0 mph /  9.7 km/h 95 % 0.00 in /  0 mm
04:46 57.6 °F /  14.2 °C 56.2 °F /  13.4 °C 29.28 in /  991.4 hPa South 4.4 mph /  7.1 km/h 13.8 mph /  22.2 km/h 95 % 0.00 in /  0 mm
04:51 57.5 °F /  14.2 °C 56.1 °F /  13.4 °C 29.27 in /  991.1 hPa SSW 3.6 mph /  5.8 km/h 8.1 mph /  13 km/h 95 % 0.00 in /  0 mm
04:56 57.5 °F /  14.2 °C 56.1 °F /  13.4 °C 29.27 in /  991.1 hPa SSW 4.8 mph /  7.7 km/h 9.2 mph /  14.8 km/h 95 % 0.00 in /  0 mm
05:06 57.5 °F /  14.2 °C 56.1 °F /  13.4 °C 29.26 in /  990.7 hPa SSW 6.4 mph /  10.3 km/h 11.5 mph /  18.5 km/h 95 % 0.00 in /  0 mm
05:11 57.5 °F /  14.2 °C 56.1 °F /  13.4 °C 29.26 in /  990.7 hPa South 4.5 mph /  7.2 km/h 12.7 mph /  20.4 km/h 95 % 0.00 in /  0 mm
05:17 57.6 °F /  14.2 °C 56.2 °F /  13.4 °C 29.27 in /  991.1 hPa SSW 6.2 mph /  10 km/h 11.5 mph /  18.5 km/h 95 % 0.00 in /  0 mm
05:22 57.6 °F /  14.2 °C 56.2 °F /  13.4 °C 29.28 in /  991.4 hPa SSW 5.1 mph /  8.2 km/h 17.3 mph /  27.8 km/h 95 % 0.00 in /  0 mm
05:27 57.6 °F /  14.2 °C 56.5 °F /  13.6 °C 29.27 in /  991.1 hPa South 7.0 mph /  11.3 km/h 11.5 mph /  18.5 km/h 96 % 0.00 in /  0 mm
05:32 57.7 °F /  14.3 °C 56.6 °F /  13.7 °C 29.27 in /  991.1 hPa SSW 5.2 mph /  8.4 km/h 10.4 mph /  16.7 km/h 96 % 0.00 in /  0 mm
05:42 57.7 °F /  14.3 °C 56.6 °F /  13.7 °C 29.25 in /  990.4 hPa SW 6.5 mph /  10.5 km/h 12.0 mph /  19.3 km/h 96 % 0.00 in /  0 mm
05:47 57.8 °F /  14.3 °C 56.7 °F /  13.7 °C 29.25 in /  990.4 hPa South 6.1 mph /  9.8 km/h 11.5 mph /  18.5 km/h 96 % 0.00 in /  0 mm
05:52 57.8 °F /  14.3 °C 56.7 °F /  13.7 °C 29.25 in /  990.4 hPa SSW 5.2 mph /  8.4 km/h 15.0 mph /  24.1 km/h 96 % 0.00 in /  0 mm
05:57 57.8 °F /  14.3 °C 56.7 °F /  13.7 °C 29.24 in /  990.1 hPa South 3.9 mph /  6.3 km/h 6.0 mph /  9.7 km/h 96 % 0.00 in /  0 mm
06:02 57.8 °F /  14.3 °C 56.7 °F /  13.7 °C 29.24 in /  990.1 hPa SW 6.4 mph /  10.3 km/h 10.0 mph /  16.1 km/h 96 % 0.00 in /  0 mm
06:07 57.8 °F /  14.3 °C 56.7 °F /  13.7 °C 29.24 in /  990.1 hPa South 9.1 mph /  14.6 km/h 16.1 mph /  25.9 km/h 96 % 0.00 in /  0 mm
06:17 57.8 °F /  14.3 °C 56.7 °F /  13.7 °C 29.24 in /  990.1 hPa SSW 5.9 mph /  9.5 km/h 10.4 mph /  16.7 km/h 96 % 0.00 in /  0 mm
06:22 57.8 °F /  14.3 °C 56.7 °F /  13.7 °C 29.23 in /  989.7 hPa SSW 5.8 mph /  9.3 km/h 11.5 mph /  18.5 km/h 96 % 0.00 in /  0 mm
06:27 57.8 °F /  14.3 °C 56.7 °F /  13.7 °C 29.24 in /  990.1 hPa SSE 4.2 mph /  6.8 km/h 15.0 mph /  24.1 km/h 96 % 0.00 in /  0 mm
06:32 57.8 °F /  14.3 °C 56.7 °F /  13.7 °C 29.25 in /  990.4 hPa SSW 8.3 mph /  13.4 km/h 8.3 mph /  13.4 km/h 96 % 0.00 in /  0 mm
06:37 57.8 °F /  14.3 °C 56.7 °F /  13.7 °C 29.23 in /  989.7 hPa SSW 5.8 mph /  9.3 km/h 15.0 mph /  24.1 km/h 96 % 0.00 in /  0 mm
06:43 57.8 °F /  14.3 °C 56.7 °F /  13.7 °C 29.23 in /  989.7 hPa SSW 5.8 mph /  9.3 km/h 11.5 mph /  18.5 km/h 96 % 0.00 in /  0 mm
06:53 57.8 °F /  14.3 °C 56.7 °F /  13.7 °C 29.23 in /  989.7 hPa South 5.4 mph /  8.7 km/h 8.1 mph /  13 km/h 96 % 0.00 in /  0 mm
06:58 57.8 °F /  14.3 °C 56.7 °F /  13.7 °C 29.23 in /  989.7 hPa WSW 4.2 mph /  6.8 km/h 13.8 mph /  22.2 km/h 96 % 0.00 in /  0 mm
07:03 57.8 °F /  14.3 °C 56.7 °F /  13.7 °C 29.24 in /  990.1 hPa SSW 5.7 mph /  9.2 km/h 12.7 mph /  20.4 km/h 96 % 0.00 in /  0 mm
07:05 57.8 °F /  14.3 °C 56.7 °F /  13.7 °C 29.24 in /  990.1 hPa SSW 4.6 mph /  7.4 km/h 9.2 mph /  14.8 km/h 96 % 0.00 in /  0 mm
07:10 57.8 °F /  14.3 °C 56.7 °F /  13.7 °C 29.24 in /  990.1 hPa SW 7.1 mph /  11.4 km/h 11.0 mph /  17.7 km/h 96 % 0.00 in /  0 mm
07:15 57.8 °F /  14.3 °C 56.7 °F /  13.7 °C 29.24 in /  990.1 hPa SSW 6.2 mph /  10 km/h 19.6 mph /  31.5 km/h 96 % 0.00 in /  0 mm
07:20 57.8 °F /  14.3 °C 56.7 °F /  13.7 °C 29.24 in /  990.1 hPa SW 4.1 mph /  6.6 km/h 6.9 mph /  11.1 km/h 96 % 0.00 in /  0 mm
07:25 57.8 °F /  14.3 °C 56.7 °F /  13.7 °C 29.23 in /  989.7 hPa SW 5.0 mph /  8 km/h 10.4 mph /  16.7 km/h 96 % 0.00 in /  0 mm
07:30 57.6 °F /  14.2 °C 56.5 °F /  13.6 °C 29.23 in /  989.7 hPa SSW 4.2 mph /  6.8 km/h 12.7 mph /  20.4 km/h 96 % 0.00 in /  0 mm
07:35 57.4 °F /  14.1 °C 56.0 °F /  13.3 °C 29.23 in /  989.7 hPa South 7.8 mph /  12.6 km/h 13.8 mph /  22.2 km/h 95 % 0.00 in /  0 mm
07:40 57.1 °F /  13.9 °C 55.7 °F /  13.2 °C 29.24 in /  990.1 hPa SW 5.5 mph /  8.9 km/h 11.5 mph /  18.5 km/h 95 % 0.00 in /  0 mm
07:50 56.8 °F /  13.8 °C 55.4 °F /  13 °C 29.24 in /  990.1 hPa SW 6.4 mph /  10.3 km/h 14.0 mph /  22.5 km/h 95 % 0.00 in /  0 mm
07:55 56.7 °F /  13.7 °C 55.3 °F /  12.9 °C 29.24 in /  990.1 hPa South 7.1 mph /  11.4 km/h 11.5 mph /  18.5 km/h 95 % 0.00 in /  0 mm
08:26 56.3 °F /  13.5 °C 54.9 °F /  12.7 °C 29.25 in /  990.4 hPa SSW 8.0 mph /  12.9 km/h 18.0 mph /  29 km/h 95 % 0.00 in /  0 mm
08:36 56.3 °F /  13.5 °C 54.9 °F /  12.7 °C 29.25 in /  990.4 hPa SW 13.0 mph /  20.9 km/h 23.0 mph /  37 km/h 95 % 0.00 in /  0 mm
08:46 55.9 °F /  13.3 °C 53.3 °F /  11.8 °C 29.27 in /  991.1 hPa SW 9.0 mph /  14.5 km/h 17.0 mph /  27.4 km/h 91 % 0.00 in /  0 mm
08:51 55.7 °F /  13.2 °C 52.5 °F /  11.4 °C 29.27 in /  991.1 hPa WSW 8.0 mph /  12.9 km/h 22.0 mph /  35.4 km/h 89 % 0.00 in /  0 mm
08:56 55.4 °F /  13 °C 50.6 °F /  10.3 °C 29.28 in /  991.4 hPa WSW 12.0 mph /  19.3 km/h 28.0 mph /  45.1 km/h 84 % 0.00 in /  0 mm
09:06 55.0 °F /  12.8 °C 48.6 °F /  9.2 °C 29.29 in /  991.8 hPa West 10.1 mph /  16.3 km/h 21.9 mph /  35.2 km/h 79 % 0.00 in /  0 mm
09:11 55.1 °F /  12.8 °C 48.4 °F /  9.1 °C 29.30 in /  992.1 hPa WSW 13.7 mph /  22 km/h 26.5 mph /  42.6 km/h 78 % 0.00 in /  0 mm
09:16 55.2 °F /  12.9 °C 47.8 °F /  8.8 °C 29.30 in /  992.1 hPa SW 8.6 mph /  13.8 km/h 13.8 mph /  22.2 km/h 76 % 0.00 in /  0 mm
09:26 54.9 °F /  12.7 °C 47.1 °F /  8.4 °C 29.31 in /  992.4 hPa WSW 8.2 mph /  13.2 km/h 15.0 mph /  24.1 km/h 75 % 0.00 in /  0 mm
09:46 54.6 °F /  12.6 °C 46.1 °F /  7.8 °C 29.33 in /  993.1 hPa NW 9.4 mph /  15.1 km/h 13.0 mph /  20.9 km/h 73 % 0.00 in /  0 mm
09:51 54.5 °F /  12.5 °C 46.0 °F /  7.8 °C 29.34 in /  993.5 hPa WNW 10.2 mph /  16.4 km/h 11.0 mph /  17.7 km/h 73 % 0.00 in /  0 mm
09:56 54.2 °F /  12.3 °C 45.7 °F /  7.6 °C 29.35 in /  993.8 hPa NNW 5.8 mph /  9.3 km/h 11.0 mph /  17.7 km/h 73 % 0.00 in /  0 mm
10:08 53.9 °F /  12.2 °C 44.3 °F /  6.8 °C 29.36 in /  994.1 hPa NW 9.0 mph /  14.5 km/h 13.8 mph /  22.2 km/h 70 % 0.00 in /  0 mm
10:13 53.5 °F /  11.9 °C 42.4 °F /  5.8 °C 29.37 in /  994.5 hPa West 11.6 mph /  18.7 km/h 19.6 mph /  31.5 km/h 66 % 0.00 in /  0 mm
10:23 53.2 °F /  11.8 °C 42.1 °F /  5.6 °C 29.39 in /  995.1 hPa West 7.5 mph /  12.1 km/h 13.8 mph /  22.2 km/h 66 % 0.00 in /  0 mm
10:33 52.8 °F /  11.6 °C 41.0 °F /  5 °C 29.40 in /  995.5 hPa WNW 5.9 mph /  9.5 km/h 17.3 mph /  27.8 km/h 64 % 0.00 in /  0 mm
10:48 52.5 °F /  11.4 °C 41.1 °F /  5.1 °C 29.40 in /  995.5 hPa NW 11.4 mph /  18.3 km/h 19.6 mph /  31.5 km/h 65 % 0.00 in /  0 mm
10:53 52.4 °F /  11.3 °C 41.0 °F /  5 °C 29.40 in /  995.5 hPa WSW 6.4 mph /  10.3 km/h 15.0 mph /  24.1 km/h 65 % 0.00 in /  0 mm
10:58 52.2 °F /  11.2 °C 41.2 °F /  5.1 °C 29.41 in /  995.8 hPa NNW 6.8 mph /  10.9 km/h 16.0 mph /  25.7 km/h 66 % 0.00 in /  0 mm
11:03 51.9 °F /  11.1 °C 40.1 °F /  4.5 °C 29.41 in /  995.8 hPa WNW 10.8 mph /  17.4 km/h 16.1 mph /  25.9 km/h 64 % 0.00 in /  0 mm
11:08 51.4 °F /  10.8 °C 39.2 °F /  4 °C 29.42 in /  996.2 hPa SW 12.4 mph /  20 km/h 19.6 mph /  31.5 km/h 63 % 0.00 in /  0 mm
11:22 50.5 °F /  10.3 °C 38.0 °F /  3.3 °C 29.42 in /  996.2 hPa West 12.5 mph /  20.1 km/h 19.6 mph /  31.5 km/h 62 % 0.00 in /  0 mm
11:27 50.4 °F /  10.2 °C 38.3 °F /  3.5 °C 29.43 in /  996.5 hPa WNW 8.6 mph /  13.8 km/h 24.2 mph /  38.9 km/h 63 % 0.00 in /  0 mm
11:32 50.2 °F /  10.1 °C 38.5 °F /  3.6 °C 29.44 in /  996.8 hPa NE 11.4 mph /  18.3 km/h 24.2 mph /  38.9 km/h 64 % 0.00 in /  0 mm
11:37 49.9 °F /  9.9 °C 38.2 °F /  3.4 °C 29.43 in /  996.5 hPa WNW 7.1 mph /  11.4 km/h 19.6 mph /  31.5 km/h 64 % 0.00 in /  0 mm
11:42 49.9 °F /  9.9 °C 38.2 °F /  3.4 °C 29.45 in /  997.2 hPa WNW 17.8 mph /  28.6 km/h 28.0 mph /  45.1 km/h 64 % 0.00 in /  0 mm
11:47 49.8 °F /  9.9 °C 37.7 °F /  3.2 °C 29.44 in /  996.8 hPa WNW 9.6 mph /  15.4 km/h 20.7 mph /  33.3 km/h 63 % 0.00 in /  0 mm
11:52 49.9 °F /  9.9 °C 37.4 °F /  3 °C 29.45 in /  997.2 hPa West 14.7 mph /  23.7 km/h 24.2 mph /  38.9 km/h 62 % 0.00 in /  0 mm
11:57 49.9 °F /  9.9 °C 37.4 °F /  3 °C 29.45 in /  997.2 hPa NNW 14.5 mph /  23.3 km/h 21.9 mph /  35.2 km/h 62 % 0.00 in /  0 mm
12:02 50.0 °F /  10 °C 37.9 °F /  3.3 °C 29.45 in /  997.2 hPa SSW 9.2 mph /  14.8 km/h 25.3 mph /  40.7 km/h 63 % 0.00 in /  0 mm
12:07 50.0 °F /  10 °C 38.3 °F /  3.5 °C 29.46 in /  997.5 hPa NW 8.4 mph /  13.5 km/h 27.6 mph /  44.4 km/h 64 % 0.00 in /  0 mm
12:17 49.7 °F /  9.8 °C 37.6 °F /  3.1 °C 29.47 in /  997.9 hPa WSW 14.1 mph /  22.7 km/h 21.9 mph /  35.2 km/h 63 % 0.00 in /  0 mm
12:28 49.7 °F /  9.8 °C 37.6 °F /  3.1 °C 29.47 in /  997.9 hPa WSW 8.2 mph /  13.2 km/h 16.1 mph /  25.9 km/h 63 % 0.00 in /  0 mm
12:32 49.6 °F /  9.8 °C 37.5 °F /  3.1 °C 29.48 in /  998.2 hPa NNW 10.2 mph /  16.4 km/h 19.6 mph /  31.5 km/h 63 % 0.00 in /  0 mm
12:58 49.1 °F /  9.5 °C 37.4 °F /  3 °C 29.49 in /  998.5 hPa West 10.4 mph /  16.7 km/h 19.6 mph /  31.5 km/h 64 % 0.00 in /  0 mm
13:03 49.0 °F /  9.4 °C 36.5 °F /  2.5 °C 29.50 in /  998.9 hPa NW 13.6 mph /  21.9 km/h 23.0 mph /  37 km/h 62 % 0.00 in /  0 mm
13:08 49.0 °F /  9.4 °C 37.3 °F /  2.9 °C 29.50 in /  998.9 hPa West 8.8 mph /  14.2 km/h 17.3 mph /  27.8 km/h 64 % 0.00 in /  0 mm
13:13 49.2 °F /  9.6 °C 37.5 °F /  3.1 °C 29.50 in /  998.9 hPa NW 10.5 mph /  16.9 km/h 18.4 mph /  29.6 km/h 64 % 0.00 in /  0 mm
13:18 49.3 °F /  9.6 °C 37.2 °F /  2.9 °C 29.50 in /  998.9 hPa NE 4.5 mph /  7.2 km/h 17.3 mph /  27.8 km/h 63 % 0.00 in /  0 mm
13:23 49.4 °F /  9.7 °C 36.5 °F /  2.5 °C 29.50 in /  998.9 hPa WNW 7.6 mph /  12.2 km/h 17.3 mph /  27.8 km/h 61 % 0.00 in /  0 mm
13:28 49.3 °F /  9.6 °C 36.4 °F /  2.4 °C 29.50 in /  998.9 hPa WNW 12.3 mph /  19.8 km/h 23.0 mph /  37 km/h 61 % 0.00 in /  0 mm
13:33 49.2 °F /  9.6 °C 35.9 °F /  2.2 °C 29.50 in /  998.9 hPa NW 9.4 mph /  15.1 km/h 19.6 mph /  31.5 km/h 60 % 0.00 in /  0 mm
13:38 49.0 °F /  9.4 °C 36.5 °F /  2.5 °C 29.51 in /  999.2 hPa West 10.9 mph /  17.5 km/h 18.0 mph /  29 km/h 62 % 0.00 in /  0 mm
13:43 48.9 °F /  9.4 °C 36.0 °F /  2.2 °C 29.50 in /  998.9 hPa WNW 12.1 mph /  19.5 km/h 19.6 mph /  31.5 km/h 61 % 0.00 in /  0 mm
13:49 48.9 °F /  9.4 °C 36.4 °F /  2.4 °C 29.51 in /  999.2 hPa WNW 14.5 mph /  23.3 km/h 21.0 mph /  33.8 km/h 62 % 0.00 in /  0 mm
13:59 49.1 °F /  9.5 °C 36.6 °F /  2.6 °C 29.51 in /  999.2 hPa NNW 8.0 mph /  12.9 km/h 13.8 mph /  22.2 km/h 62 % 0.00 in /  0 mm
14:19 48.6 °F /  9.2 °C 36.2 °F /  2.3 °C 29.53 in /  999.9 hPa WNW 11.8 mph /  19 km/h 20.0 mph /  32.2 km/h 62 % 0.00 in /  0 mm
14:24 48.5 °F /  9.2 °C 37.3 °F /  2.9 °C 29.53 in /  999.9 hPa NW 9.2 mph /  14.8 km/h 16.1 mph /  25.9 km/h 65 % 0.00 in /  0 mm
14:29 48.3 °F /  9.1 °C 37.5 °F /  3.1 °C 29.54 in /  1000.2 hPa West 12.1 mph /  19.5 km/h 26.5 mph /  42.6 km/h 66 % 0.00 in /  0 mm
14:34 48.1 °F /  8.9 °C 36.9 °F /  2.7 °C 29.54 in /  1000.2 hPa East 8.5 mph /  13.7 km/h 15.0 mph /  24.1 km/h 65 % 0.00 in /  0 mm
14:44 47.7 °F /  8.7 °C 36.1 °F /  2.3 °C 29.55 in /  1000.6 hPa West 7.1 mph /  11.4 km/h 16.1 mph /  25.9 km/h 64 % 0.00 in /  0 mm
14:54 47.5 °F /  8.6 °C 35.5 °F /  1.9 °C 29.56 in /  1000.9 hPa WNW 13.6 mph /  21.9 km/h 26.5 mph /  42.6 km/h 63 % 0.00 in /  0 mm
15:09 47.0 °F /  8.3 °C 35.4 °F /  1.9 °C 29.57 in /  1001.2 hPa NW 7.8 mph /  12.6 km/h 13.8 mph /  22.2 km/h 64 % 0.00 in /  0 mm
15:19 46.7 °F /  8.2 °C 34.4 °F /  1.3 °C 29.58 in /  1001.6 hPa West 11.2 mph /  18 km/h 21.9 mph /  35.2 km/h 62 % 0.00 in /  0 mm
15:24 46.6 °F /  8.1 °C 34.7 °F /  1.5 °C 29.58 in /  1001.6 hPa NNW 9.2 mph /  14.8 km/h 24.2 mph /  38.9 km/h 63 % 0.00 in /  0 mm
15:29 46.4 °F /  8 °C 34.5 °F /  1.4 °C 29.58 in /  1001.6 hPa WNW 10.9 mph /  17.5 km/h 20.7 mph /  33.3 km/h 63 % 0.00 in /  0 mm
15:34 46.3 °F /  7.9 °C 34.4 °F /  1.3 °C 29.58 in /  1001.6 hPa West 10.6 mph /  17.1 km/h 18.4 mph /  29.6 km/h 63 % 0.00 in /  0 mm
15:49 46.1 °F /  7.8 °C 33.8 °F /  1 °C 29.59 in /  1001.9 hPa West 9.0 mph /  14.5 km/h 18.4 mph /  29.6 km/h 62 % 0.00 in /  0 mm
15:59 46.0 °F /  7.8 °C 34.1 °F /  1.2 °C 29.60 in /  1002.3 hPa West 6.2 mph /  10 km/h 11.5 mph /  18.5 km/h 63 % 0.00 in /  0 mm
16:04 46.0 °F /  7.8 °C 33.7 °F /  0.9 °C 29.60 in /  1002.3 hPa NW 5.1 mph /  8.2 km/h 19.6 mph /  31.5 km/h 62 % 0.00 in /  0 mm
16:09 45.9 °F /  7.7 °C 34.0 °F /  1.1 °C 29.60 in /  1002.3 hPa NNW 9.7 mph /  15.6 km/h 13.8 mph /  22.2 km/h 63 % 0.00 in /  0 mm
16:14 45.8 °F /  7.7 °C 33.9 °F /  1.1 °C 29.61 in /  1002.6 hPa WNW 7.3 mph /  11.7 km/h 9.2 mph /  14.8 km/h 63 % 0.00 in /  0 mm
16:19 45.8 °F /  7.7 °C 33.9 °F /  1.1 °C 29.61 in /  1002.6 hPa West 4.4 mph /  7.1 km/h 11.5 mph /  18.5 km/h 63 % 0.00 in /  0 mm
16:24 45.7 °F /  7.6 °C 33.0 °F /  0.6 °C 29.61 in /  1002.6 hPa West 8.4 mph /  13.5 km/h 15.0 mph /  24.1 km/h 61 % 0.00 in /  0 mm
16:29 45.7 °F /  7.6 °C 33.8 °F /  1 °C 29.61 in /  1002.6 hPa WNW 9.3 mph /  15 km/h 17.3 mph /  27.8 km/h 63 % 0.00 in /  0 mm
16:39 45.7 °F /  7.6 °C 34.2 °F /  1.2 °C 29.62 in /  1002.9 hPa NW 8.9 mph /  14.3 km/h 19.6 mph /  31.5 km/h 64 % 0.00 in /  0 mm
16:44 45.7 °F /  7.6 °C 33.4 °F /  0.8 °C 29.63 in /  1003.3 hPa NW 13.6 mph /  21.9 km/h 17.0 mph /  27.4 km/h 62 % 0.00 in /  0 mm
16:50 45.6 °F /  7.6 °C 32.5 °F /  0.3 °C 29.63 in /  1003.3 hPa NW 9.4 mph /  15.1 km/h 17.3 mph /  27.8 km/h 60 % 0.00 in /  0 mm
16:55 45.4 °F /  7.4 °C 31.9 °F /  -0.1 °C 29.63 in /  1003.3 hPa NW 6.0 mph /  9.7 km/h 19.6 mph /  31.5 km/h 59 % 0.00 in /  0 mm
17:05 45.1 °F /  7.3 °C 31.2 °F /  -0.4 °C 29.63 in /  1003.3 hPa NNW 10.8 mph /  17.4 km/h 18.4 mph /  29.6 km/h 58 % 0.00 in /  0 mm
17:15 45.1 °F /  7.3 °C 32.0 °F /  0 °C 29.64 in /  1003.6 hPa WNW 9.2 mph /  14.8 km/h 16.1 mph /  25.9 km/h 60 % 0.00 in /  0 mm
17:25 44.9 °F /  7.2 °C 31.8 °F /  -0.1 °C 29.65 in /  1003.9 hPa NW 10.2 mph /  16.4 km/h 22.0 mph /  35.4 km/h 60 % 0.01 in /  0.25 mm
17:30 44.9 °F /  7.2 °C 32.3 °F /  0.2 °C 29.66 in /  1004.3 hPa WNW 10.0 mph /  16.1 km/h 24.2 mph /  38.9 km/h 61 % 0.01 in /  0.25 mm
17:35 44.8 °F /  7.1 °C 31.3 °F /  -0.4 °C 29.66 in /  1004.3 hPa WNW 12.6 mph /  20.3 km/h 21.0 mph /  33.8 km/h 59 % 0.02 in /  0.51 mm
17:40 44.7 °F /  7.1 °C 31.7 °F /  -0.2 °C 29.67 in /  1004.6 hPa NW 10.1 mph /  16.3 km/h 17.3 mph /  27.8 km/h 60 % 0.02 in /  0.51 mm
17:50 44.6 °F /  7 °C 31.6 °F /  -0.2 °C 29.66 in /  1004.3 hPa WNW 8.4 mph /  13.5 km/h 19.6 mph /  31.5 km/h 60 % 0.03 in /  0.76 mm
17:55 44.5 °F /  6.9 °C 31.5 °F /  -0.3 °C 29.66 in /  1004.3 hPa WNW 3.3 mph /  5.3 km/h 12.0 mph /  19.3 km/h 60 % 0.03 in /  0.76 mm
18:00 44.4 °F /  6.9 °C 31.0 °F /  -0.6 °C 29.67 in /  1004.6 hPa NNW 7.0 mph /  11.3 km/h 11.5 mph /  18.5 km/h 59 % 0.04 in /  1.02 mm
18:05 44.3 °F /  6.8 °C 31.3 °F /  -0.4 °C 29.67 in /  1004.6 hPa West 4.6 mph /  7.4 km/h 10.0 mph /  16.1 km/h 60 % 0.04 in /  1.02 mm
18:10 44.3 °F /  6.8 °C 31.3 °F /  -0.4 °C 29.67 in /  1004.6 hPa West 5.8 mph /  9.3 km/h 12.0 mph /  19.3 km/h 60 % 0.04 in /  1.02 mm
18:15 44.2 °F /  6.8 °C 31.6 °F /  -0.2 °C 29.68 in /  1005 hPa WNW 5.1 mph /  8.2 km/h 15.0 mph /  24.1 km/h 61 % 0.04 in /  1.02 mm
18:20 44.3 °F /  6.8 °C 31.7 °F /  -0.2 °C 29.68 in /  1005 hPa WNW 3.6 mph /  5.8 km/h 8.1 mph /  13 km/h 61 % 0.05 in /  1.27 mm
18:35 44.2 °F /  6.8 °C 30.8 °F /  -0.7 °C 29.68 in /  1005 hPa NW 5.6 mph /  9 km/h 13.0 mph /  20.9 km/h 59 % 0.04 in /  1.02 mm
18:40 44.2 °F /  6.8 °C 31.2 °F /  -0.4 °C 29.69 in /  1005.3 hPa WNW 8.2 mph /  13.2 km/h 14.0 mph /  22.5 km/h 60 % 0.04 in /  1.02 mm
18:45 44.2 °F /  6.8 °C 30.3 °F /  -0.9 °C 29.69 in /  1005.3 hPa West 8.8 mph /  14.2 km/h 17.3 mph /  27.8 km/h 58 % 0.04 in /  1.02 mm
18:50 44.2 °F /  6.8 °C 30.8 °F /  -0.7 °C 29.70 in /  1005.6 hPa WNW 9.6 mph /  15.4 km/h 20.7 mph /  33.3 km/h 59 % 0.03 in /  0.76 mm
18:55 44.3 °F /  6.8 °C 30.9 °F /  -0.6 °C 29.69 in /  1005.3 hPa West 5.4 mph /  8.7 km/h 11.5 mph /  18.5 km/h 59 % 0.03 in /  0.76 mm
19:00 44.3 °F /  6.8 °C 31.3 °F /  -0.4 °C 29.70 in /  1005.6 hPa SW 8.5 mph /  13.7 km/h 10.4 mph /  16.7 km/h 60 % 0.03 in /  0.76 mm
19:05 44.3 °F /  6.8 °C 31.3 °F /  -0.4 °C 29.70 in /  1005.6 hPa WNW 5.3 mph /  8.5 km/h 9.2 mph /  14.8 km/h 60 % 0.03 in /  0.76 mm
19:15 44.2 °F /  6.8 °C 30.8 °F /  -0.7 °C 29.70 in /  1005.6 hPa West 5.0 mph /  8 km/h 10.4 mph /  16.7 km/h 59 % 0.03 in /  0.76 mm
19:31 44.1 °F /  6.7 °C 31.1 °F /  -0.5 °C 29.71 in /  1006 hPa WSW 4.1 mph /  6.6 km/h 7.0 mph /  11.3 km/h 60 % 0.03 in /  0.76 mm
19:36 44.1 °F /  6.7 °C 31.1 °F /  -0.5 °C 29.71 in /  1006 hPa WNW 5.0 mph /  8 km/h 9.0 mph /  14.5 km/h 60 % 0.00 in /  0 mm
19:41 44.0 °F /  6.7 °C 31.0 °F /  -0.6 °C 29.71 in /  1006 hPa WNW 3.0 mph /  4.8 km/h 8.0 mph /  12.9 km/h 60 % 0.00 in /  0 mm
19:51 43.9 °F /  6.6 °C 30.9 °F /  -0.6 °C 29.71 in /  1006 hPa West 3.0 mph /  4.8 km/h 12.0 mph /  19.3 km/h 60 % 0.00 in /  0 mm
20:06 43.8 °F /  6.6 °C 30.8 °F /  -0.7 °C 29.72 in /  1006.3 hPa NW 6.0 mph /  9.7 km/h 20.0 mph /  32.2 km/h 60 % 0.00 in /  0 mm
20:11 43.8 °F /  6.6 °C 31.2 °F /  -0.4 °C 29.72 in /  1006.3 hPa WNW 5.3 mph /  8.5 km/h 15.0 mph /  24.1 km/h 61 % 0.01 in /  0.25 mm
20:16 43.9 °F /  6.6 °C 31.3 °F /  -0.4 °C 29.72 in /  1006.3 hPa WSW 8.7 mph /  14 km/h 15.0 mph /  24.1 km/h 61 % 0.01 in /  0.25 mm
20:21 43.9 °F /  6.6 °C 31.3 °F /  -0.4 °C 29.72 in /  1006.3 hPa WNW 7.0 mph /  11.3 km/h 20.0 mph /  32.2 km/h 61 % 0.00 in /  0 mm
20:31 43.9 °F /  6.6 °C 31.3 °F /  -0.4 °C 29.72 in /  1006.3 hPa WNW 8.0 mph /  12.9 km/h 20.0 mph /  32.2 km/h 61 % 0.00 in /  0 mm
20:36 43.9 °F /  6.6 °C 30.9 °F /  -0.6 °C 29.73 in /  1006.7 hPa NW 8.0 mph /  12.9 km/h 16.0 mph /  25.7 km/h 60 % 0.00 in /  0 mm
20:46 44.0 °F /  6.7 °C 31.8 °F /  -0.1 °C 29.73 in /  1006.7 hPa WNW 6.0 mph /  9.7 km/h 12.0 mph /  19.3 km/h 62 % 0.00 in /  0 mm
21:01 44.0 °F /  6.7 °C 32.2 °F /  0.1 °C 29.73 in /  1006.7 hPa South 7.9 mph /  12.7 km/h 12.7 mph /  20.4 km/h 63 % 0.00 in /  0 mm
21:06 44.0 °F /  6.7 °C 32.2 °F /  0.1 °C 29.73 in /  1006.7 hPa WSW 6.4 mph /  10.3 km/h 16.1 mph /  25.9 km/h 63 % 0.00 in /  0 mm
21:10 44.0 °F /  6.7 °C 32.6 °F /  0.3 °C 29.73 in /  1006.7 hPa WNW 6.6 mph /  10.6 km/h 10.0 mph /  16.1 km/h 64 % 0.00 in /  0 mm
21:15 44.0 °F /  6.7 °C 32.2 °F /  0.1 °C 29.74 in /  1007 hPa WNW 4.0 mph /  6.4 km/h 11.5 mph /  18.5 km/h 63 % 0.00 in /  0 mm
21:26 44.0 °F /  6.7 °C 32.2 °F /  0.1 °C 29.74 in /  1007 hPa West 2.0 mph /  3.2 km/h 13.0 mph /  20.9 km/h 63 % 0.00 in /  0 mm
21:41 43.8 °F /  6.6 °C 32.4 °F /  0.2 °C 29.75 in /  1007.3 hPa WNW 4.1 mph /  6.6 km/h 4.1 mph /  6.6 km/h 64 % 0.00 in /  0 mm
21:46 43.6 °F /  6.4 °C 32.2 °F /  0.1 °C 29.75 in /  1007.3 hPa West 4.9 mph /  7.9 km/h 12.7 mph /  20.4 km/h 64 % 0.00 in /  0 mm
21:51 43.5 °F /  6.4 °C 31.7 °F /  -0.2 °C 29.75 in /  1007.3 hPa WNW 7.5 mph /  12.1 km/h 12.7 mph /  20.4 km/h 63 % 0.00 in /  0 mm
21:56 43.4 °F /  6.3 °C 32.0 °F /  0 °C 29.75 in /  1007.3 hPa West 4.1 mph /  6.6 km/h 10.4 mph /  16.7 km/h 64 % 0.00 in /  0 mm
22:01 43.4 °F /  6.3 °C 32.4 °F /  0.2 °C 29.75 in /  1007.3 hPa West 4.3 mph /  6.9 km/h 12.7 mph /  20.4 km/h 65 % 0.00 in /  0 mm
22:06 43.3 °F /  6.3 °C 32.3 °F /  0.2 °C 29.75 in /  1007.3 hPa SSW 3.5 mph /  5.6 km/h 6.9 mph /  11.1 km/h 65 % 0.00 in /  0 mm
22:11 43.3 °F /  6.3 °C 32.3 °F /  0.2 °C 29.76 in /  1007.7 hPa West 3.7 mph /  6 km/h 9.2 mph /  14.8 km/h 65 % 0.00 in /  0 mm
22:16 43.2 °F /  6.2 °C 32.2 °F /  0.1 °C 29.75 in /  1007.3 hPa NW 1.6 mph /  2.6 km/h 3.5 mph /  5.6 km/h 65 % 0.00 in /  0 mm
22:26 43.0 °F /  6.1 °C 31.6 °F /  -0.2 °C 29.76 in /  1007.7 hPa WNW 5.7 mph /  9.2 km/h 9.2 mph /  14.8 km/h 64 % 0.00 in /  0 mm
22:31 43.0 °F /  6.1 °C 32.0 °F /  0 °C 29.76 in /  1007.7 hPa West 5.9 mph /  9.5 km/h 12.0 mph /  19.3 km/h 65 % 0.00 in /  0 mm
22:36 43.1 °F /  6.2 °C 32.1 °F /  0.1 °C 29.77 in /  1008 hPa WSW 6.3 mph /  10.1 km/h 9.2 mph /  14.8 km/h 65 % 0.00 in /  0 mm
22:41 43.1 °F /  6.2 °C 32.1 °F /  0.1 °C 29.77 in /  1008 hPa WNW 6.3 mph /  10.1 km/h 13.8 mph /  22.2 km/h 65 % 0.00 in /  0 mm
22:46 43.2 °F /  6.2 °C 32.2 °F /  0.1 °C 29.76 in /  1007.7 hPa WSW 2.9 mph /  4.7 km/h 15.0 mph /  24.1 km/h 65 % 0.00 in /  0 mm
22:51 43.3 °F /  6.3 °C 32.3 °F /  0.2 °C 29.77 in /  1008 hPa West 3.9 mph /  6.3 km/h 5.0 mph /  8 km/h 65 % 0.00 in /  0 mm
22:56 43.4 °F /  6.3 °C 33.2 °F /  0.7 °C 29.77 in /  1008 hPa WSW 12.0 mph /  19.3 km/h 15.0 mph /  24.1 km/h 67 % 0.00 in /  0 mm
23:06 43.4 °F /  6.3 °C 33.9 °F /  1.1 °C 29.77 in /  1008 hPa WSW 9.7 mph /  15.6 km/h 11.5 mph /  18.5 km/h 69 % 0.00 in /  0 mm
23:11 43.4 °F /  6.3 °C 33.9 °F /  1.1 °C 29.77 in /  1008 hPa WNW 3.0 mph /  4.8 km/h 9.2 mph /  14.8 km/h 69 % 0.00 in /  0 mm
23:16 43.3 °F /  6.3 °C 33.4 °F /  0.8 °C 29.77 in /  1008 hPa WSW 5.1 mph /  8.2 km/h 16.1 mph /  25.9 km/h 68 % 0.00 in /  0 mm
23:22 43.2 °F /  6.2 °C 33.3 °F /  0.7 °C 29.77 in /  1008 hPa WSW 7.7 mph /  12.4 km/h 13.8 mph /  22.2 km/h 68 % 0.00 in /  0 mm
23:27 43.1 °F /  6.2 °C 33.3 °F /  0.7 °C 29.78 in /  1008.4 hPa WSW 2.6 mph /  4.2 km/h 6.9 mph /  11.1 km/h 68 % 0.00 in /  0 mm
23:32 42.9 °F /  6.1 °C 33.1 °F /  0.6 °C 29.77 in /  1008 hPa WSW 4.4 mph /  7.1 km/h 12.7 mph /  20.4 km/h 68 % 0.00 in /  0 mm
23:37 42.8 °F /  6 °C 33.3 °F /  0.7 °C 29.78 in /  1008.4 hPa West 3.4 mph /  5.5 km/h 12.7 mph /  20.4 km/h 69 % 0.00 in /  0 mm
23:42 42.7 °F /  5.9 °C 33.6 °F /  0.9 °C 29.78 in /  1008.4 hPa WSW 5.1 mph /  8.2 km/h 8.1 mph /  13 km/h 70 % 0.00 in /  0 mm
23:52 42.4 °F /  5.8 °C 33.7 °F /  0.9 °C 29.78 in /  1008.4 hPa NW 4.0 mph /  6.4 km/h 8.1 mph /  13 km/h 71 % 0.00 in /  0 mm
Crab Meadow Weather
Compliments of Weather Underground - 2.75 mb

Script developed by  Jim McMurry - jmcmurry@mwt.net Adapted for the template by  Wim van der Kuil - Leuven-Template.eu

Lightning: At any given moment, there are about 1,800 thunderstorms happening around the world. Approximately 100 lightning bolts strike the earth every second.